JST712 YMHB-YMML
Flight info
| Callsign | JST712 |
|---|---|
| Flight time | 0h 57m |
| Altitude | 32000 |
| Route | LATUM H111 LT H215 RAZZI |
| Aircraft | A320/M-SDE3FGHIRWY/LB1 |
Departure
| Time | 2026-05-05 17:18 |
|---|---|
| Airport | Hobart International Airport (YMHB) |
Arrival
| Time | 2026-05-05 18:16 |
|---|---|
| Airport | Melbourne Airport (YMML) |
| Time | Latitude | Longitude | Altitude | Speed | Heading |
|---|---|---|---|---|---|
| 2026-05-05 16:59 | -42.83744 | 147.50699 | 22 ft | 0 kts | 236° |
| 2026-05-05 17:08 | -42.83737 | 147.50714 | 25 ft | 4 kts | 236° |
| 2026-05-05 17:08 | -42.83725 | 147.50738 | 23 ft | 4 kts | 230° |
| 2026-05-05 17:09 | -42.83707 | 147.50754 | 24 ft | 4 kts | 160° |
| 2026-05-05 17:09 | -42.83685 | 147.50734 | 22 ft | 4 kts | 134° |
| 2026-05-05 17:09 | -42.83681 | 147.50728 | 22 ft | 0 kts | 135° |
| 2026-05-05 17:12 | -42.83682 | 147.50729 | 22 ft | 2 kts | 135° |
| 2026-05-05 17:12 | -42.83698 | 147.50753 | 23 ft | 9 kts | 127° |
| 2026-05-05 17:12 | -42.83676 | 147.50887 | 25 ft | 13 kts | 115° |
| 2026-05-05 17:13 | -42.83742 | 147.50982 | 23 ft | 15 kts | 135° |
| 2026-05-05 17:13 | -42.83818 | 147.51087 | 22 ft | 16 kts | 134° |
| 2026-05-05 17:13 | -42.83861 | 147.51194 | 22 ft | 11 kts | 67° |
| 2026-05-05 17:13 | -42.83800 | 147.51277 | 23 ft | 14 kts | 43° |
| 2026-05-05 17:14 | -42.83780 | 147.51395 | 24 ft | 15 kts | 121° |
| 2026-05-05 17:14 | -42.83831 | 147.51471 | 22 ft | 17 kts | 135° |
| 2026-05-05 17:14 | -42.83925 | 147.51599 | 24 ft | 21 kts | 135° |
| 2026-05-05 17:14 | -42.84038 | 147.51753 | 22 ft | 25 kts | 135° |
| 2026-05-05 17:15 | -42.84169 | 147.51931 | 24 ft | 28 kts | 135° |
| 2026-05-05 17:15 | -42.84313 | 147.52126 | 23 ft | 27 kts | 135° |
| 2026-05-05 17:15 | -42.84411 | 147.52259 | 24 ft | 12 kts | 135° |
| 2026-05-05 17:15 | -42.84490 | 147.52311 | 22 ft | 14 kts | 165° |
| 2026-05-05 17:16 | -42.84562 | 147.52368 | 22 ft | 9 kts | 133° |
| 2026-05-05 17:16 | -42.84563 | 147.52439 | 22 ft | 8 kts | 49° |
| 2026-05-05 17:16 | -42.84533 | 147.52424 | 22 ft | 6 kts | 323° |
| 2026-05-05 17:16 | -42.84519 | 147.52406 | 22 ft | 0 kts | 314° |
| 2026-05-05 17:17 | -42.84468 | 147.52336 | 23 ft | 39 kts | 315° |
| 2026-05-05 17:18 | -42.84108 | 147.51850 | 24 ft | 102 kts | 315° |
| 2026-05-05 17:18 | -42.83502 | 147.51029 | 43 ft | 144 kts | 316° |
| 2026-05-05 17:18 | -42.82795 | 147.50061 | 584 ft | 145 kts | 316° |
| 2026-05-05 17:18 | -42.82080 | 147.49094 | 1216 ft | 145 kts | 316° |
| 2026-05-05 17:19 | -42.81368 | 147.48129 | 1847 ft | 146 kts | 315° |
| 2026-05-05 17:19 | -42.80598 | 147.47090 | 2156 ft | 167 kts | 314° |
| 2026-05-05 17:19 | -42.79738 | 147.45921 | 2410 ft | 189 kts | 313° |
| 2026-05-05 17:19 | -42.78748 | 147.44566 | 2742 ft | 215 kts | 313° |
| 2026-05-05 17:20 | -42.77651 | 147.43056 | 3387 ft | 229 kts | 312° |
| 2026-05-05 17:20 | -42.76519 | 147.41503 | 4320 ft | 232 kts | 311° |
| 2026-05-05 17:20 | -42.75380 | 147.39942 | 5307 ft | 232 kts | 310° |
| 2026-05-05 17:20 | -42.74238 | 147.38375 | 6242 ft | 234 kts | 311° |
| 2026-05-05 17:21 | -42.73003 | 147.36898 | 7077 ft | 243 kts | 323° |
| 2026-05-05 17:21 | -42.71330 | 147.36218 | 7846 ft | 264 kts | 350° |
| 2026-05-05 17:21 | -42.69447 | 147.36364 | 8600 ft | 274 kts | 356° |
| 2026-05-05 17:22 | -42.65576 | 147.36756 | 10196 ft | 283 kts | 355° |
| 2026-05-05 17:22 | -42.63567 | 147.36938 | 10479 ft | 305 kts | 356° |
| 2026-05-05 17:22 | -42.61383 | 147.37128 | 10823 ft | 321 kts | 356° |
| 2026-05-05 17:22 | -42.59129 | 147.37336 | 11453 ft | 326 kts | 357° |
| 2026-05-05 17:23 | -42.56853 | 147.37556 | 12144 ft | 329 kts | 357° |
| 2026-05-05 17:23 | -42.54562 | 147.37783 | 12871 ft | 332 kts | 358° |
| 2026-05-05 17:23 | -42.52250 | 147.38009 | 13593 ft | 335 kts | 358° |
| 2026-05-05 17:23 | -42.49918 | 147.38233 | 14242 ft | 337 kts | 358° |
| 2026-05-05 17:24 | -42.47568 | 147.38455 | 14849 ft | 340 kts | 357° |
| 2026-05-05 17:24 | -42.45200 | 147.38674 | 15442 ft | 343 kts | 357° |
| 2026-05-05 17:24 | -42.43880 | 147.38797 | 15770 ft | 344 kts | 357° |
| 2026-05-05 17:24 | -42.42324 | 147.38942 | 16159 ft | 346 kts | 357° |
| 2026-05-05 17:25 | -42.39911 | 147.39164 | 16764 ft | 349 kts | 357° |
| 2026-05-05 17:25 | -42.38298 | 147.39313 | 17169 ft | 351 kts | 357° |
| 2026-05-05 17:25 | -42.35020 | 147.39619 | 17949 ft | 355 kts | 357° |
| 2026-05-05 17:25 | -42.32549 | 147.39763 | 18510 ft | 354 kts | 351° |
| 2026-05-05 17:26 | -42.30121 | 147.39384 | 19037 ft | 351 kts | 343° |
| 2026-05-05 17:26 | -42.27713 | 147.38795 | 19573 ft | 353 kts | 343° |
| 2026-05-05 17:26 | -42.25315 | 147.38211 | 20102 ft | 356 kts | 343° |
| 2026-05-05 17:26 | -42.22862 | 147.37617 | 20611 ft | 359 kts | 343° |
| 2026-05-05 17:27 | -42.20391 | 147.37023 | 21112 ft | 362 kts | 343° |
| 2026-05-05 17:27 | -42.17898 | 147.36427 | 21585 ft | 365 kts | 344° |
| 2026-05-05 17:27 | -42.15391 | 147.35830 | 22058 ft | 368 kts | 344° |
| 2026-05-05 17:27 | -42.12866 | 147.35222 | 22537 ft | 370 kts | 344° |
| 2026-05-05 17:28 | -42.10315 | 147.34609 | 23014 ft | 373 kts | 344° |
| 2026-05-05 17:28 | -42.07748 | 147.33994 | 23478 ft | 376 kts | 344° |
| 2026-05-05 17:28 | -42.05167 | 147.33377 | 23901 ft | 379 kts | 344° |
| 2026-05-05 17:28 | -42.02567 | 147.32758 | 24306 ft | 381 kts | 344° |
| 2026-05-05 17:29 | -41.99946 | 147.32134 | 24713 ft | 383 kts | 344° |
| 2026-05-05 17:29 | -41.97318 | 147.31507 | 25115 ft | 385 kts | 344° |
| 2026-05-05 17:29 | -41.94670 | 147.30875 | 25502 ft | 387 kts | 344° |
| 2026-05-05 17:29 | -41.92013 | 147.30241 | 25888 ft | 389 kts | 344° |
| 2026-05-05 17:30 | -41.89339 | 147.29602 | 26268 ft | 391 kts | 344° |
| 2026-05-05 17:30 | -41.86650 | 147.28960 | 26669 ft | 394 kts | 344° |
| 2026-05-05 17:30 | -41.83981 | 147.28324 | 27036 ft | 396 kts | 344° |
| 2026-05-05 17:30 | -41.81264 | 147.27675 | 27402 ft | 398 kts | 344° |
| 2026-05-05 17:31 | -41.78528 | 147.27023 | 27775 ft | 400 kts | 344° |
| 2026-05-05 17:31 | -41.75776 | 147.26368 | 28142 ft | 402 kts | 344° |
| 2026-05-05 17:31 | -41.73014 | 147.25715 | 28516 ft | 404 kts | 344° |
| 2026-05-05 17:31 | -41.70235 | 147.25059 | 28877 ft | 407 kts | 345° |
| 2026-05-05 17:32 | -41.67429 | 147.24397 | 29244 ft | 409 kts | 345° |
| 2026-05-05 17:32 | -41.64621 | 147.23735 | 29606 ft | 412 kts | 345° |
| 2026-05-05 17:32 | -41.61789 | 147.23067 | 29966 ft | 414 kts | 345° |
| 2026-05-05 17:32 | -41.58945 | 147.22398 | 30291 ft | 416 kts | 345° |
| 2026-05-05 17:33 | -41.56087 | 147.21722 | 30583 ft | 418 kts | 343° |
| 2026-05-05 17:33 | -41.53292 | 147.20712 | 30886 ft | 414 kts | 335° |
| 2026-05-05 17:33 | -41.50626 | 147.19276 | 31263 ft | 413 kts | 333° |
| 2026-05-05 17:33 | -41.48006 | 147.17841 | 31700 ft | 411 kts | 333° |
| 2026-05-05 17:34 | -41.45355 | 147.16400 | 31993 ft | 412 kts | 333° |
| 2026-05-05 17:34 | -41.40049 | 147.13536 | 32058 ft | 411 kts | 334° |
| 2026-05-05 17:35 | -41.34750 | 147.10676 | 32063 ft | 411 kts | 334° |
| 2026-05-05 17:35 | -41.29453 | 147.07808 | 32069 ft | 411 kts | 334° |
| 2026-05-05 17:36 | -41.24151 | 147.04943 | 32074 ft | 411 kts | 334° |
| 2026-05-05 17:36 | -41.18844 | 147.02085 | 32076 ft | 412 kts | 334° |
| 2026-05-05 17:37 | -41.13560 | 146.99239 | 32078 ft | 412 kts | 334° |
| 2026-05-05 17:37 | -41.08246 | 146.96384 | 32079 ft | 412 kts | 334° |
| 2026-05-05 17:38 | -41.02922 | 146.93537 | 32081 ft | 412 kts | 334° |
| 2026-05-05 17:38 | -40.97599 | 146.90691 | 32083 ft | 412 kts | 334° |
| 2026-05-05 17:39 | -40.92277 | 146.87845 | 32086 ft | 413 kts | 334° |
| 2026-05-05 17:39 | -40.86953 | 146.85003 | 32086 ft | 413 kts | 334° |
| 2026-05-05 17:40 | -40.81625 | 146.82169 | 32087 ft | 413 kts | 334° |
| 2026-05-05 17:40 | -40.76299 | 146.79347 | 32087 ft | 413 kts | 334° |
| 2026-05-05 17:41 | -40.70970 | 146.76519 | 32093 ft | 413 kts | 334° |
| 2026-05-05 17:41 | -40.65681 | 146.73709 | 32093 ft | 413 kts | 334° |
| 2026-05-05 17:42 | -40.60348 | 146.70890 | 32092 ft | 413 kts | 335° |
| 2026-05-05 17:42 | -40.55009 | 146.68074 | 32099 ft | 413 kts | 335° |
| 2026-05-05 17:43 | -40.49667 | 146.65262 | 32100 ft | 413 kts | 335° |
| 2026-05-05 17:43 | -40.44323 | 146.62456 | 32101 ft | 414 kts | 335° |
| 2026-05-05 17:44 | -40.38975 | 146.59650 | 32105 ft | 414 kts | 335° |
| 2026-05-05 17:44 | -40.33621 | 146.56846 | 32104 ft | 414 kts | 335° |
| 2026-05-05 17:45 | -40.28261 | 146.54051 | 32109 ft | 415 kts | 335° |
| 2026-05-05 17:45 | -40.22899 | 146.51248 | 32109 ft | 415 kts | 335° |
| 2026-05-05 17:46 | -40.17538 | 146.48451 | 32122 ft | 415 kts | 335° |
| 2026-05-05 17:46 | -40.12169 | 146.45664 | 32110 ft | 415 kts | 335° |
| 2026-05-05 17:47 | -40.06800 | 146.42864 | 32113 ft | 416 kts | 335° |
| 2026-05-05 17:47 | -40.01460 | 146.40090 | 32120 ft | 416 kts | 335° |
| 2026-05-05 17:48 | -39.96046 | 146.37295 | 32120 ft | 416 kts | 335° |
| 2026-05-05 17:48 | -39.90700 | 146.34537 | 32127 ft | 416 kts | 335° |
| 2026-05-05 17:49 | -39.85311 | 146.31771 | 32127 ft | 416 kts | 336° |
| 2026-05-05 17:49 | -39.79922 | 146.29005 | 32127 ft | 416 kts | 336° |
| 2026-05-05 17:50 | -39.74527 | 146.26253 | 32131 ft | 416 kts | 336° |
| 2026-05-05 17:50 | -39.69134 | 146.23500 | 32138 ft | 417 kts | 336° |
| 2026-05-05 17:51 | -39.63745 | 146.20746 | 32134 ft | 417 kts | 336° |
| 2026-05-05 17:51 | -39.58340 | 146.17996 | 32138 ft | 417 kts | 336° |
| 2026-05-05 17:52 | -39.52916 | 146.15234 | 32141 ft | 418 kts | 336° |
| 2026-05-05 17:52 | -39.47546 | 146.12508 | 32141 ft | 417 kts | 336° |
| 2026-05-05 17:53 | -39.42135 | 146.09770 | 32144 ft | 417 kts | 336° |
| 2026-05-05 17:53 | -39.36727 | 146.07034 | 32148 ft | 417 kts | 336° |
| 2026-05-05 17:54 | -39.31439 | 146.04365 | 32167 ft | 393 kts | 336° |
| 2026-05-05 17:54 | -39.26390 | 146.01813 | 32151 ft | 395 kts | 336° |
| 2026-05-05 17:55 | -39.21235 | 145.99214 | 32153 ft | 399 kts | 336° |
| 2026-05-05 17:55 | -39.16040 | 145.96606 | 32163 ft | 407 kts | 336° |
| 2026-05-05 17:56 | -39.10665 | 145.93906 | 32164 ft | 426 kts | 336° |
| 2026-05-05 17:56 | -39.05042 | 145.91084 | 32158 ft | 438 kts | 336° |
| 2026-05-05 17:57 | -38.99348 | 145.88230 | 32166 ft | 440 kts | 336° |
| 2026-05-05 17:57 | -38.93640 | 145.85386 | 32174 ft | 440 kts | 336° |
| 2026-05-05 17:58 | -38.87928 | 145.82540 | 32171 ft | 440 kts | 336° |
| 2026-05-05 17:58 | -38.82220 | 145.79698 | 32177 ft | 440 kts | 336° |
| 2026-05-05 17:59 | -38.76502 | 145.76855 | 32108 ft | 441 kts | 336° |
| 2026-05-05 17:59 | -38.73637 | 145.75437 | 31851 ft | 441 kts | 336° |
| 2026-05-05 17:59 | -38.70775 | 145.74021 | 31451 ft | 441 kts | 336° |
| 2026-05-05 17:59 | -38.68877 | 145.73081 | 30845 ft | 443 kts | 336° |
| 2026-05-05 18:00 | -38.68616 | 145.72952 | 30761 ft | 443 kts | 336° |
| 2026-05-05 18:00 | -38.65632 | 145.71464 | 29921 ft | 442 kts | 337° |
| 2026-05-05 18:00 | -38.62777 | 145.70049 | 28648 ft | 449 kts | 337° |
| 2026-05-05 18:00 | -38.59853 | 145.68612 | 27654 ft | 450 kts | 338° |
| 2026-05-05 18:01 | -38.56920 | 145.67176 | 26534 ft | 453 kts | 338° |
| 2026-05-05 18:01 | -38.53963 | 145.65723 | 25347 ft | 458 kts | 338° |
| 2026-05-05 18:01 | -38.50976 | 145.64249 | 24203 ft | 461 kts | 338° |
| 2026-05-05 18:01 | -38.47983 | 145.62764 | 23142 ft | 461 kts | 337° |
| 2026-05-05 18:02 | -38.45136 | 145.60988 | 22223 ft | 453 kts | 331° |
| 2026-05-05 18:02 | -38.42378 | 145.59094 | 21386 ft | 446 kts | 331° |
| 2026-05-05 18:02 | -38.39656 | 145.57218 | 20468 ft | 442 kts | 330° |
| 2026-05-05 18:02 | -38.36968 | 145.55364 | 19519 ft | 439 kts | 330° |
| 2026-05-05 18:03 | -38.34309 | 145.53530 | 18862 ft | 430 kts | 330° |
| 2026-05-05 18:03 | -38.31696 | 145.51725 | 17963 ft | 426 kts | 330° |
| 2026-05-05 18:03 | -38.29103 | 145.49936 | 17057 ft | 421 kts | 330° |
| 2026-05-05 18:03 | -38.26536 | 145.48168 | 16182 ft | 417 kts | 330° |
| 2026-05-05 18:04 | -38.23994 | 145.46421 | 15344 ft | 413 kts | 330° |
| 2026-05-05 18:04 | -38.21479 | 145.44696 | 14548 ft | 409 kts | 330° |
| 2026-05-05 18:04 | -38.18983 | 145.42988 | 13766 ft | 405 kts | 330° |
| 2026-05-05 18:04 | -38.16589 | 145.41352 | 12987 ft | 402 kts | 330° |
| 2026-05-05 18:05 | -38.14135 | 145.39676 | 12236 ft | 398 kts | 330° |
| 2026-05-05 18:05 | -38.11718 | 145.38023 | 11643 ft | 390 kts | 330° |
| 2026-05-05 18:05 | -38.09389 | 145.36434 | 11508 ft | 370 kts | 330° |
| 2026-05-05 18:05 | -38.07177 | 145.34927 | 11337 ft | 353 kts | 330° |
| 2026-05-05 18:06 | -38.05045 | 145.33475 | 10966 ft | 344 kts | 330° |
| 2026-05-05 18:06 | -38.04334 | 145.32992 | 10846 ft | 341 kts | 330° |
| 2026-05-05 18:06 | -38.00928 | 145.30678 | 10253 ft | 329 kts | 330° |
| 2026-05-05 18:06 | -37.98939 | 145.29298 | 9870 ft | 323 kts | 329° |
| 2026-05-05 18:07 | -37.96989 | 145.27930 | 9482 ft | 318 kts | 329° |
| 2026-05-05 18:07 | -37.95063 | 145.26573 | 9093 ft | 314 kts | 329° |
| 2026-05-05 18:07 | -37.93167 | 145.25237 | 8705 ft | 311 kts | 329° |
| 2026-05-05 18:07 | -37.91285 | 145.23914 | 8319 ft | 307 kts | 329° |
| 2026-05-05 18:08 | -37.89427 | 145.22611 | 7958 ft | 304 kts | 329° |
| 2026-05-05 18:08 | -37.87581 | 145.21321 | 7584 ft | 302 kts | 329° |
| 2026-05-05 18:08 | -37.86392 | 145.20432 | 7345 ft | 299 kts | 323° |
| 2026-05-05 18:08 | -37.84932 | 145.18608 | 6989 ft | 294 kts | 304° |
| 2026-05-05 18:09 | -37.84041 | 145.16365 | 6587 ft | 287 kts | 287° |
| 2026-05-05 18:09 | -37.83596 | 145.13922 | 6071 ft | 283 kts | 282° |
| 2026-05-05 18:09 | -37.83183 | 145.11505 | 5567 ft | 279 kts | 282° |
| 2026-05-05 18:09 | -37.82772 | 145.09115 | 5065 ft | 276 kts | 282° |
| 2026-05-05 18:10 | -37.82364 | 145.06755 | 4554 ft | 273 kts | 282° |
| 2026-05-05 18:10 | -37.81963 | 145.04433 | 4030 ft | 267 kts | 282° |
| 2026-05-05 18:10 | -37.81581 | 145.02165 | 3523 ft | 260 kts | 279° |
| 2026-05-05 18:10 | -37.81560 | 144.99915 | 3079 ft | 252 kts | 262° |
| 2026-05-05 18:11 | -37.81921 | 144.97851 | 2998 ft | 230 kts | 258° |
| 2026-05-05 18:11 | -37.82254 | 144.95975 | 2996 ft | 206 kts | 259° |
| 2026-05-05 18:11 | -37.82543 | 144.94292 | 3002 ft | 186 kts | 259° |
| 2026-05-05 18:11 | -37.82765 | 144.92714 | 3007 ft | 180 kts | 262° |
| 2026-05-05 18:12 | -37.82954 | 144.91155 | 3009 ft | 178 kts | 262° |
| 2026-05-05 18:12 | -37.83136 | 144.89610 | 3005 ft | 177 kts | 263° |
| 2026-05-05 18:12 | -37.83006 | 144.88086 | 3020 ft | 176 kts | 293° |
| 2026-05-05 18:12 | -37.82225 | 144.86896 | 3019 ft | 180 kts | 324° |
| 2026-05-05 18:13 | -37.81025 | 144.86407 | 2960 ft | 186 kts | 348° |
| 2026-05-05 18:13 | -37.79747 | 144.86165 | 2657 ft | 184 kts | 348° |
| 2026-05-05 18:13 | -37.78526 | 144.85943 | 2394 ft | 170 kts | 348° |
| 2026-05-05 18:13 | -37.77403 | 144.85741 | 2151 ft | 156 kts | 348° |
| 2026-05-05 18:14 | -37.76362 | 144.85550 | 1932 ft | 148 kts | 348° |
| 2026-05-05 18:14 | -37.75356 | 144.85364 | 1725 ft | 145 kts | 348° |
| 2026-05-05 18:14 | -37.74362 | 144.85178 | 1518 ft | 143 kts | 349° |
| 2026-05-05 18:14 | -37.73390 | 144.84997 | 1330 ft | 143 kts | 349° |
| 2026-05-05 18:15 | -37.72415 | 144.84811 | 1115 ft | 141 kts | 350° |
| 2026-05-05 18:15 | -37.71443 | 144.84619 | 927 ft | 141 kts | 351° |
| 2026-05-05 18:15 | -37.70471 | 144.84451 | 750 ft | 141 kts | 352° |
| 2026-05-05 18:15 | -37.69501 | 144.84273 | 577 ft | 141 kts | 349° |
| 2026-05-05 18:16 | -37.68534 | 144.84086 | 388 ft | 140 kts | 351° |
| 2026-05-05 18:16 | -37.67648 | 144.83920 | 365 ft | 107 kts | 352° |
| 2026-05-05 18:16 | -37.67094 | 144.83825 | 383 ft | 45 kts | 356° |
| 2026-05-05 18:16 | -37.66933 | 144.83865 | 388 ft | 17 kts | 20° |
| 2026-05-05 18:17 | -37.66838 | 144.83913 | 391 ft | 11 kts | 20° |
| 2026-05-05 18:17 | -37.66808 | 144.83977 | 392 ft | 11 kts | 124° |
| 2026-05-05 18:17 | -37.66895 | 144.84002 | 388 ft | 16 kts | 170° |
| 2026-05-05 18:17 | -37.67018 | 144.84027 | 385 ft | 20 kts | 171° |
| 2026-05-05 18:18 | -37.67165 | 144.84052 | 380 ft | 15 kts | 171° |
| 2026-05-05 18:18 | -37.67221 | 144.84153 | 379 ft | 17 kts | 82° |
| 2026-05-05 18:18 | -37.67208 | 144.84300 | 382 ft | 15 kts | 84° |
| 2026-05-05 18:18 | -37.67198 | 144.84423 | 384 ft | 11 kts | 87° |
| 2026-05-05 18:19 | -37.67189 | 144.84480 | 385 ft | 5 kts | 17° |
| 2026-05-05 18:19 | -37.67156 | 144.84462 | 385 ft | 8 kts | 345° |
| 2026-05-05 18:19 | -37.67082 | 144.84444 | 387 ft | 13 kts | 339° |
| 2026-05-05 18:19 | -37.67055 | 144.84334 | 386 ft | 17 kts | 262° |
| 2026-05-05 18:20 | -37.67140 | 144.84261 | 383 ft | 18 kts | 177° |
| 2026-05-05 18:20 | -37.67274 | 144.84283 | 380 ft | 22 kts | 173° |
| 2026-05-05 18:20 | -37.67426 | 144.84311 | 377 ft | 18 kts | 173° |
| 2026-05-05 18:20 | -37.67479 | 144.84365 | 376 ft | 10 kts | 86° |
| 2026-05-05 18:21 | -37.67467 | 144.84459 | 378 ft | 11 kts | 80° |
| 2026-05-05 18:21 | -37.67457 | 144.84555 | 380 ft | 11 kts | 82° |
| 2026-05-05 18:21 | -37.67456 | 144.84622 | 380 ft | 6 kts | 126° |
| 2026-05-05 18:21 | -37.67503 | 144.84634 | 379 ft | 8 kts | 171° |
| 2026-05-05 18:22 | -37.67526 | 144.84638 | 379 ft | 1 kts | 172° |
| 2026-05-05 18:22 | -37.67527 | 144.84638 | 379 ft | 0 kts | 172° |